createdAt,value
2023-01-19T00:01:41.072Z,47.30
2023-01-19T00:05:08.669Z,52.80
2023-01-19T00:08:36.305Z,81.00
2023-01-19T00:12:03.350Z,56.80
2023-01-19T00:15:30.310Z,50.90
2023-01-19T00:18:57.654Z,47.10
2023-01-19T00:22:24.632Z,46.10
2023-01-19T00:25:51.795Z,43.10
2023-01-19T00:29:20.359Z,44.60
2023-01-19T00:32:47.569Z,32.30
2023-01-19T00:36:14.711Z,41.30
2023-01-19T00:39:41.967Z,46.40
2023-01-19T00:43:09.006Z,47.60
2023-01-19T00:46:36.059Z,51.40
2023-01-19T00:50:03.226Z,51.10
2023-01-19T00:53:32.658Z,42.70
2023-01-19T01:00:26.281Z,38.50
2023-01-19T01:03:54.268Z,35.90
2023-01-19T01:07:21.421Z,34.70
2023-01-19T01:10:48.497Z,34.50
2023-01-19T01:14:16.060Z,34.10
2023-01-19T01:17:48.251Z,34.40
2023-01-19T01:21:15.532Z,36.80
2023-01-19T01:24:42.611Z,32.30
2023-01-19T01:28:11.118Z,37.00
2023-01-19T01:31:38.606Z,35.20
2023-01-19T01:35:06.140Z,35.20
2023-01-19T01:38:33.180Z,31.80
2023-01-19T01:42:00.093Z,33.90
2023-01-19T01:45:35.066Z,36.50
2023-01-19T01:49:05.747Z,38.60
2023-01-19T01:52:37.951Z,36.90
2023-01-19T01:56:08.628Z,36.40
2023-01-19T01:59:39.425Z,35.50
2023-01-19T02:03:06.956Z,43.80
2023-01-19T02:06:34.957Z,40.00
2023-01-19T02:10:20.112Z,40.10
2023-01-19T02:13:48.358Z,44.90
2023-01-19T02:17:15.777Z,44.70
2023-01-19T02:20:46.545Z,40.00
2023-01-19T02:24:14.547Z,38.30
2023-01-19T02:27:41.557Z,43.70
2023-01-19T02:31:08.655Z,42.50
2023-01-19T02:34:36.238Z,36.40
2023-01-19T02:38:05.022Z,38.10
2023-01-19T02:41:39.450Z,41.80
2023-01-19T02:45:09.609Z,41.70
2023-01-19T02:48:36.952Z,39.70
2023-01-19T02:52:04.388Z,38.10
2023-01-19T02:55:33.893Z,30.80
2023-01-19T02:59:07.304Z,32.60
2023-01-19T03:02:46.307Z,31.90
2023-01-19T03:06:25.404Z,33.80
2023-01-19T03:10:00.200Z,31.30
2023-01-19T03:13:35.212Z,31.60
2023-01-19T03:17:07.047Z,32.20
2023-01-19T03:20:35.048Z,33.80
2023-01-19T03:24:08.008Z,32.60
2023-01-19T03:27:40.952Z,36.80
2023-01-19T03:31:13.851Z,43.20
2023-01-19T03:34:43.258Z,35.50
2023-01-19T03:38:15.955Z,31.20
2023-01-19T03:41:44.713Z,31.30
2023-01-19T03:45:13.596Z,32.00
2023-01-19T03:48:42.329Z,30.60
2023-01-19T03:52:09.701Z,29.20
2023-01-19T03:55:38.258Z,27.40
2023-01-19T03:59:06.252Z,20.80
2023-01-19T04:02:33.662Z,27.00
2023-01-19T04:06:00.739Z,28.30
2023-01-19T04:09:27.883Z,24.10
2023-01-19T04:13:00.830Z,28.40
2023-01-19T04:16:29.070Z,27.80
2023-01-19T04:19:55.999Z,27.60
2023-01-19T04:23:22.934Z,25.70
2023-01-19T04:26:51.939Z,28.20
2023-01-19T04:30:19.719Z,28.30
2023-01-19T04:33:46.609Z,30.00
2023-01-19T04:37:14.227Z,26.90
2023-01-19T04:40:41.151Z,26.90
2023-01-19T04:44:08.417Z,25.90
2023-01-19T04:47:35.331Z,25.90
2023-01-19T04:51:02.324Z,26.20
2023-01-19T04:54:29.296Z,25.30
2023-01-19T04:57:56.258Z,25.90
2023-01-19T05:01:23.596Z,28.90
2023-01-19T05:04:51.168Z,43.20
2023-01-19T05:08:18.116Z,33.70
2023-01-19T05:11:45.470Z,33.60
2023-01-19T05:15:14.153Z,29.80
2023-01-19T05:18:41.932Z,21.40
2023-01-19T05:22:09.628Z,27.40
2023-01-19T05:25:38.232Z,26.30
2023-01-19T05:29:05.602Z,27.10
2023-01-19T05:32:32.618Z,35.90
2023-01-19T05:35:59.578Z,26.50
2023-01-19T05:39:26.853Z,24.00
2023-01-19T05:42:54.007Z,26.10
2023-01-19T05:46:21.055Z,26.50
2023-01-19T05:49:47.997Z,26.80
2023-01-19T05:53:15.049Z,88.60
2023-01-19T05:56:42.093Z,63.80
2023-01-19T06:00:11.607Z,36.10
2023-01-19T06:03:41.098Z,30.40
2023-01-19T06:07:09.228Z,25.10
2023-01-19T06:10:36.472Z,21.30
2023-01-19T06:14:03.441Z,20.70
2023-01-19T06:17:30.517Z,21.30
2023-01-19T06:20:59.640Z,21.30
2023-01-19T06:24:26.567Z,22.50
2023-01-19T06:27:53.563Z,20.30
2023-01-19T06:31:20.563Z,20.50
2023-01-19T06:34:47.718Z,21.20
2023-01-19T06:38:15.598Z,20.20
2023-01-19T06:41:43.159Z,20.60
2023-01-19T06:45:12.560Z,19.40
2023-01-19T06:48:39.538Z,21.70
2023-01-19T06:52:06.757Z,21.40
2023-01-19T06:55:35.739Z,25.20
2023-01-19T06:59:03.295Z,32.20
2023-01-19T07:02:30.481Z,78.90
2023-01-19T07:05:58.302Z,63.30
2023-01-19T07:09:25.902Z,54.50
2023-01-19T07:12:53.418Z,54.80
2023-01-19T07:16:20.883Z,30.60
2023-01-19T07:19:48.854Z,27.00
2023-01-19T07:23:16.345Z,33.10
2023-01-19T07:26:43.523Z,32.50
2023-01-19T07:30:12.556Z,33.30
2023-01-19T07:33:39.495Z,22.80
2023-01-19T07:37:06.428Z,29.70
2023-01-19T07:40:33.898Z,29.00
2023-01-19T07:44:00.836Z,25.80
2023-01-19T07:47:27.911Z,23.80
2023-01-19T07:50:54.827Z,25.50
2023-01-19T07:54:21.907Z,23.30
2023-01-19T07:57:52.011Z,25.60
2023-01-19T08:01:19.369Z,26.20
2023-01-19T08:04:49.064Z,22.40
2023-01-19T08:08:16.090Z,54.90
2023-01-19T08:11:42.999Z,38.50
2023-01-19T08:15:11.818Z,29.30
2023-01-19T08:18:38.863Z,27.00
2023-01-19T08:22:05.963Z,24.60
2023-01-19T08:25:37.879Z,23.20
2023-01-19T08:29:06.849Z,19.90
2023-01-19T08:32:33.802Z,21.40
2023-01-19T08:36:00.936Z,21.60
2023-01-19T08:39:28.474Z,19.40
2023-01-19T08:43:00.960Z,21.50
2023-01-19T08:46:28.347Z,22.10
2023-01-19T08:49:55.273Z,23.00
2023-01-19T08:53:23.875Z,23.10
2023-01-19T08:56:51.004Z,31.90
2023-01-19T09:00:19.885Z,21.10
2023-01-19T09:03:47.001Z,22.20
2023-01-19T09:07:14.174Z,20.60
2023-01-19T09:10:45.806Z,19.60
2023-01-19T09:14:13.004Z,21.50
2023-01-19T09:17:40.408Z,22.80
2023-01-19T09:21:08.455Z,24.40
2023-01-19T09:24:36.857Z,24.90
2023-01-19T09:28:04.120Z,26.90
2023-01-19T09:31:31.316Z,26.70
2023-01-19T09:34:58.429Z,22.90
2023-01-19T09:38:25.961Z,21.50
2023-01-19T09:42:03.634Z,22.40
2023-01-19T09:45:39.470Z,23.50
2023-01-19T09:49:13.943Z,23.60
2023-01-19T09:52:49.421Z,24.10
2023-01-19T09:56:19.375Z,61.00
2023-01-19T09:59:51.056Z,38.10
2023-01-19T10:03:20.875Z,29.10
2023-01-19T10:06:48.726Z,31.10
2023-01-19T10:10:23.534Z,33.80
2023-01-19T10:13:54.215Z,30.70
2023-01-19T10:17:32.285Z,29.70
2023-01-19T10:21:05.653Z,27.30
2023-01-19T10:24:39.664Z,26.00
2023-01-19T10:28:06.907Z,28.30
2023-01-19T10:31:37.356Z,27.30
2023-01-19T10:35:21.715Z,31.10
2023-01-19T10:38:49.881Z,32.70
2023-01-19T10:42:18.867Z,31.30
2023-01-19T10:45:52.319Z,30.90
2023-01-19T10:49:31.400Z,32.30
2023-01-19T10:53:01.257Z,33.70
2023-01-19T10:56:31.941Z,34.90
2023-01-19T10:59:59.749Z,31.80
2023-01-19T11:03:29.623Z,32.40
2023-01-19T11:07:14.631Z,29.40
2023-01-19T11:10:41.781Z,28.80
2023-01-19T11:14:14.984Z,26.90
2023-01-19T11:17:48.446Z,27.90
2023-01-19T11:21:17.957Z,27.90
2023-01-19T11:24:46.125Z,27.40
2023-01-19T11:28:21.736Z,28.60
2023-01-19T11:31:49.421Z,26.80
2023-01-19T11:35:37.846Z,31.40
2023-01-19T11:39:24.807Z,31.80
2023-01-19T11:42:52.156Z,31.20
2023-01-19T11:46:20.277Z,30.00
2023-01-19T11:49:52.405Z,27.10
2023-01-19T11:53:24.427Z,30.80
2023-01-19T11:56:53.243Z,29.10
2023-01-19T12:00:29.056Z,26.50
2023-01-19T12:04:02.808Z,29.30
2023-01-19T12:07:44.778Z,29.80
2023-01-19T12:11:30.120Z,28.20
2023-01-19T12:15:03.272Z,31.50
2023-01-19T12:18:35.099Z,31.10
2023-01-19T12:22:03.180Z,30.20
2023-01-19T12:25:37.589Z,33.00
2023-01-19T12:29:12.777Z,31.00
2023-01-19T12:32:39.802Z,32.50
2023-01-19T12:36:11.194Z,31.50
2023-01-19T12:39:50.618Z,31.00
2023-01-19T12:46:47.087Z,31.40
2023-01-19T12:50:23.304Z,33.50
2023-01-19T12:53:56.113Z,33.70
2023-01-19T12:57:28.159Z,35.00
2023-01-19T13:01:16.191Z,36.00
2023-01-19T13:05:03.531Z,39.50
2023-01-19T13:09:01.994Z,38.00
2023-01-19T13:12:29.509Z,40.50
2023-01-19T13:15:58.300Z,41.20
2023-01-19T13:19:36.197Z,40.20
2023-01-19T13:23:24.646Z,39.70
2023-01-19T13:27:03.293Z,40.60
2023-01-19T13:30:35.489Z,39.60
2023-01-19T13:34:05.512Z,43.10
2023-01-19T13:37:39.203Z,43.90
2023-01-19T13:41:07.011Z,42.00
2023-01-19T13:44:39.577Z,45.40
2023-01-19T13:48:09.784Z,39.70
2023-01-19T13:51:36.872Z,53.70
2023-01-19T13:55:05.546Z,46.10
2023-01-19T13:58:33.154Z,48.60
2023-01-19T14:02:14.609Z,39.60
2023-01-19T14:05:44.037Z,36.80
2023-01-19T14:09:20.482Z,42.40
2023-01-19T14:12:59.090Z,42.00
2023-01-19T14:16:26.985Z,40.30
2023-01-19T14:19:55.557Z,39.40
2023-01-19T14:23:40.792Z,41.40
2023-01-19T14:27:19.262Z,39.60
2023-01-19T14:30:57.941Z,40.70
2023-01-19T14:34:37.082Z,38.00
2023-01-19T14:38:04.866Z,37.00
2023-01-19T14:41:39.066Z,37.80
2023-01-19T14:45:17.388Z,37.70
2023-01-19T14:48:51.881Z,36.00
2023-01-19T14:52:27.840Z,36.40
2023-01-19T14:55:59.192Z,36.40
2023-01-19T14:59:26.397Z,41.10
2023-01-19T15:02:53.352Z,47.80
2023-01-19T15:06:23.162Z,57.50
2023-01-19T15:09:51.304Z,52.30
2023-01-19T15:13:21.908Z,48.70
2023-01-19T15:16:50.426Z,52.20
2023-01-19T15:20:22.465Z,59.80
2023-01-19T15:23:49.529Z,72.30
2023-01-19T15:27:16.819Z,84.10
2023-01-19T15:30:43.823Z,75.80
2023-01-19T15:34:14.685Z,64.90
2023-01-19T15:37:41.902Z,56.40
2023-01-19T15:41:14.435Z,51.90
2023-01-19T15:44:41.474Z,52.30
2023-01-19T15:48:10.539Z,52.70
2023-01-19T15:51:38.863Z,49.80
2023-01-19T15:55:07.035Z,54.80
2023-01-19T15:58:34.291Z,51.70
2023-01-19T16:02:01.441Z,52.90
2023-01-19T16:05:42.019Z,51.00
2023-01-19T16:09:12.244Z,42.00
2023-01-19T16:16:13.760Z,56.50
2023-01-19T16:19:40.951Z,57.90
2023-01-19T16:23:15.982Z,57.60
2023-01-19T16:26:43.260Z,59.90
2023-01-19T16:30:14.839Z,62.20
2023-01-19T16:33:41.945Z,61.40
2023-01-19T16:37:08.930Z,79.40
2023-01-19T16:40:36.106Z,88.70
2023-01-19T16:44:03.454Z,89.90
2023-01-19T16:47:31.103Z,81.60
2023-01-19T16:51:06.984Z,74.40
2023-01-19T16:54:34.637Z,66.50
2023-01-19T16:58:01.848Z,65.40
2023-01-19T17:01:30.542Z,66.60
2023-01-19T17:05:00.184Z,72.20
2023-01-19T17:08:27.631Z,71.20
2023-01-19T17:11:58.216Z,78.00
2023-01-19T17:15:25.677Z,79.80
2023-01-19T17:18:53.929Z,71.50
2023-01-19T17:22:21.492Z,69.60
2023-01-19T17:25:55.398Z,68.90
2023-01-19T17:29:22.613Z,94.20
2023-01-19T17:32:50.230Z,90.90
2023-01-19T17:36:21.150Z,73.90
2023-01-19T17:39:48.593Z,69.10
2023-01-19T17:43:15.691Z,72.90
2023-01-19T17:46:42.836Z,71.80
2023-01-19T17:50:11.630Z,90.10
2023-01-19T17:53:41.389Z,80.40
2023-01-19T17:57:08.349Z,78.00
2023-01-19T18:00:35.509Z,72.00
2023-01-19T18:04:02.657Z,66.30
2023-01-19T18:07:30.083Z,62.20
2023-01-19T18:10:58.234Z,57.90
2023-01-19T18:14:25.158Z,52.30
2023-01-19T18:17:52.273Z,52.30
2023-01-19T18:21:21.777Z,52.50
2023-01-19T18:28:16.394Z,46.20
2023-01-19T18:31:43.861Z,47.90
2023-01-19T18:35:12.005Z,46.90
2023-01-19T18:38:39.440Z,51.30
2023-01-19T18:42:06.659Z,54.10
2023-01-19T18:45:33.878Z,56.80
2023-01-19T18:49:01.036Z,54.20
2023-01-19T18:52:28.074Z,66.20
2023-01-19T18:55:57.538Z,98.20
2023-01-19T19:02:50.688Z,154.60
2023-01-19T19:06:20.834Z,142.20
2023-01-19T19:09:48.609Z,105.80
2023-01-19T19:13:17.269Z,83.70
2023-01-19T19:16:44.876Z,64.40
2023-01-19T19:20:14.590Z,57.40
2023-01-19T19:23:42.370Z,49.60
2023-01-19T19:27:13.949Z,48.20
2023-01-19T19:30:41.504Z,51.90
2023-01-19T19:34:09.445Z,47.50
2023-01-19T19:37:37.295Z,52.20
2023-01-19T19:41:09.269Z,49.90
2023-01-19T19:44:36.384Z,48.20
2023-01-19T19:48:04.246Z,47.20
2023-01-19T19:51:31.974Z,48.20
2023-01-19T19:55:00.039Z,49.60
2023-01-19T19:58:30.624Z,47.60
2023-01-19T20:01:59.895Z,48.70
2023-01-19T20:08:56.940Z,53.80
2023-01-19T20:12:25.392Z,57.60
2023-01-19T20:15:54.338Z,60.40
2023-01-19T20:19:22.028Z,55.90
2023-01-19T20:22:50.053Z,55.40
2023-01-19T20:26:20.156Z,63.80
2023-01-19T20:29:51.923Z,67.90
2023-01-19T20:33:19.587Z,62.20
2023-01-19T20:36:49.915Z,59.30
2023-01-19T20:40:18.269Z,65.30
2023-01-19T20:43:46.109Z,89.80
2023-01-19T20:47:13.723Z,93.80
2023-01-19T20:50:40.792Z,92.30
2023-01-19T20:54:08.113Z,87.70
2023-01-19T20:57:35.719Z,75.60
2023-01-19T21:01:10.129Z,71.00
2023-01-19T21:04:37.911Z,65.00
2023-01-19T21:08:06.965Z,61.30
2023-01-19T21:15:01.063Z,46.40
2023-01-19T21:18:29.514Z,43.80
2023-01-19T21:21:57.641Z,40.40
2023-01-19T21:25:25.515Z,37.00
2023-01-19T21:28:53.003Z,37.60
2023-01-19T21:32:21.402Z,40.40
2023-01-19T21:35:55.737Z,39.80
2023-01-19T21:39:23.620Z,43.20
2023-01-19T21:42:51.151Z,41.30
2023-01-19T21:46:21.827Z,47.60
2023-01-19T21:49:49.156Z,44.50
2023-01-19T21:53:16.239Z,42.30
2023-01-19T21:56:44.322Z,42.50
2023-01-19T22:00:13.406Z,43.50
2023-01-19T22:03:40.925Z,38.90
2023-01-19T22:07:08.023Z,40.20
2023-01-19T22:10:38.837Z,39.50
2023-01-19T22:14:06.079Z,40.60
2023-01-19T22:17:33.285Z,39.00
2023-01-19T22:21:10.219Z,40.10
2023-01-19T22:24:37.252Z,39.30
2023-01-19T22:28:04.295Z,37.80
2023-01-19T22:31:32.632Z,36.60
2023-01-19T22:34:59.723Z,36.80
2023-01-19T22:38:27.252Z,41.60
2023-01-19T22:41:54.191Z,41.60
2023-01-19T22:45:21.938Z,41.30
2023-01-19T22:48:49.674Z,41.20
2023-01-19T22:52:16.706Z,48.50
2023-01-19T22:55:43.638Z,49.20
2023-01-19T22:59:10.915Z,46.70
2023-01-19T23:02:37.944Z,47.40
2023-01-19T23:06:08.041Z,48.20
2023-01-19T23:09:35.606Z,43.40
2023-01-19T23:13:02.532Z,43.90
2023-01-19T23:16:29.595Z,44.70
2023-01-19T23:19:56.617Z,42.30
2023-01-19T23:23:23.881Z,45.70
2023-01-19T23:26:52.156Z,41.30
2023-01-19T23:30:20.423Z,43.30
2023-01-19T23:33:47.572Z,38.40
2023-01-19T23:37:15.729Z,42.00
2023-01-19T23:40:42.801Z,42.70
2023-01-19T23:44:09.906Z,41.50
2023-01-19T23:47:37.847Z,39.00
2023-01-19T23:51:10.298Z,40.40
2023-01-19T23:54:37.674Z,39.50
2023-01-19T23:58:04.603Z,39.40
